sensor_id;sensor_type;location;lat;lon;timestamp;P1;durP1;ratioP1;P2;durP2;ratioP2
46222;SDS011;31943;51.410;7.564;2023-11-19T00:01:24;1.85;;;0.30;;
46222;SDS011;31943;51.410;7.564;2023-11-19T00:03:50;0.30;;;0.20;;
46222;SDS011;31943;51.410;7.564;2023-11-19T00:06:15;1.20;;;0.40;;
46222;SDS011;31943;51.410;7.564;2023-11-19T00:08:41;1.05;;;0.45;;
46222;SDS011;31943;51.410;7.564;2023-11-19T00:11:07;12.93;;;5.82;;
46222;SDS011;31943;51.410;7.564;2023-11-19T00:13:32;1.58;;;0.90;;
46222;SDS011;31943;51.410;7.564;2023-11-19T00:15:58;0.43;;;0.30;;
46222;SDS011;31943;51.410;7.564;2023-11-19T00:18:25;0.85;;;0.43;;
46222;SDS011;31943;51.410;7.564;2023-11-19T00:20:50;0.38;;;0.30;;
46222;SDS011;31943;51.410;7.564;2023-11-19T00:23:16;0.68;;;0.22;;
46222;SDS011;31943;51.410;7.564;2023-11-19T00:25:41;0.88;;;0.43;;
46222;SDS011;31943;51.410;7.564;2023-11-19T00:28:07;0.30;;;0.30;;
46222;SDS011;31943;51.410;7.564;2023-11-19T00:30:33;0.40;;;0.40;;
46222;SDS011;31943;51.410;7.564;2023-11-19T00:32:58;0.52;;;0.40;;
46222;SDS011;31943;51.410;7.564;2023-11-19T00:35:26;0.70;;;0.30;;
46222;SDS011;31943;51.410;7.564;2023-11-19T00:37:51;0.93;;;0.60;;
46222;SDS011;31943;51.410;7.564;2023-11-19T00:40:17;1.08;;;0.50;;
46222;SDS011;31943;51.410;7.564;2023-11-19T00:42:42;0.60;;;0.60;;
46222;SDS011;31943;51.410;7.564;2023-11-19T00:45:08;2.10;;;0.57;;
46222;SDS011;31943;51.410;7.564;2023-11-19T00:47:34;0.63;;;0.60;;
46222;SDS011;31943;51.410;7.564;2023-11-19T00:49:59;1.08;;;0.77;;
46222;SDS011;31943;51.410;7.564;2023-11-19T00:52:27;1.08;;;0.80;;
46222;SDS011;31943;51.410;7.564;2023-11-19T00:54:52;0.77;;;0.68;;
46222;SDS011;31943;51.410;7.564;2023-11-19T00:57:18;1.30;;;0.90;;
46222;SDS011;31943;51.410;7.564;2023-11-19T00:59:43;1.58;;;0.90;;
46222;SDS011;31943;51.410;7.564;2023-11-19T01:02:09;0.82;;;0.80;;
46222;SDS011;31943;51.410;7.564;2023-11-19T01:04:35;1.35;;;0.98;;
46222;SDS011;31943;51.410;7.564;2023-11-19T01:07:01;1.10;;;1.00;;
46222;SDS011;31943;51.410;7.564;2023-11-19T01:09:28;2.33;;;1.52;;
46222;SDS011;31943;51.410;7.564;2023-11-19T01:11:54;1.75;;;1.30;;
46222;SDS011;31943;51.410;7.564;2023-11-19T01:14:19;1.50;;;1.05;;
46222;SDS011;31943;51.410;7.564;2023-11-19T01:16:45;1.92;;;1.20;;
46222;SDS011;31943;51.410;7.564;2023-11-19T01:19:10;2.20;;;1.60;;
46222;SDS011;31943;51.410;7.564;2023-11-19T01:21:36;1.98;;;1.55;;
46222;SDS011;31943;51.410;7.564;2023-11-19T01:24:01;1.98;;;1.55;;
46222;SDS011;31943;51.410;7.564;2023-11-19T01:26:28;3.78;;;1.80;;
46222;SDS011;31943;51.410;7.564;2023-11-19T01:28:54;2.60;;;1.58;;
46222;SDS011;31943;51.410;7.564;2023-11-19T01:31:20;2.58;;;1.75;;
46222;SDS011;31943;51.410;7.564;2023-11-19T01:33:45;2.72;;;1.95;;
46222;SDS011;31943;51.410;7.564;2023-11-19T01:36:12;1.85;;;1.70;;
46222;SDS011;31943;51.410;7.564;2023-11-19T01:38:38;3.45;;;1.80;;
46222;SDS011;31943;51.410;7.564;2023-11-19T01:41:04;4.47;;;2.13;;
46222;SDS011;31943;51.410;7.564;2023-11-19T01:43:35;3.72;;;1.85;;
46222;SDS011;31943;51.410;7.564;2023-11-19T01:46:01;2.40;;;2.00;;
46222;SDS011;31943;51.410;7.564;2023-11-19T01:48:27;1.90;;;1.70;;
46222;SDS011;31943;51.410;7.564;2023-11-19T01:50:53;1.80;;;1.70;;
46222;SDS011;31943;51.410;7.564;2023-11-19T01:53:19;2.95;;;1.77;;
46222;SDS011;31943;51.410;7.564;2023-11-19T01:55:45;2.00;;;1.80;;
46222;SDS011;31943;51.410;7.564;2023-11-19T01:58:12;2.58;;;2.10;;
46222;SDS011;31943;51.410;7.564;2023-11-19T02:00:39;1.80;;;1.70;;
46222;SDS011;31943;51.410;7.564;2023-11-19T02:03:05;8.73;;;1.83;;
46222;SDS011;31943;51.410;7.564;2023-11-19T02:05:31;2.53;;;1.55;;
46222;SDS011;31943;51.410;7.564;2023-11-19T02:07:58;2.17;;;1.50;;
46222;SDS011;31943;51.410;7.564;2023-11-19T02:10:23;1.90;;;1.25;;
46222;SDS011;31943;51.410;7.564;2023-11-19T02:12:49;1.10;;;0.98;;
46222;SDS011;31943;51.410;7.564;2023-11-19T02:15:14;1.25;;;1.15;;
46222;SDS011;31943;51.410;7.564;2023-11-19T02:17:42;1.20;;;1.10;;
46222;SDS011;31943;51.410;7.564;2023-11-19T02:20:07;1.30;;;1.00;;
46222;SDS011;31943;51.410;7.564;2023-11-19T02:22:33;2.70;;;1.10;;
46222;SDS011;31943;51.410;7.564;2023-11-19T02:24:59;1.02;;;0.90;;
46222;SDS011;31943;51.410;7.564;2023-11-19T02:27:30;1.85;;;1.35;;
46222;SDS011;31943;51.410;7.564;2023-11-19T02:30:02;2.95;;;1.42;;
46222;SDS011;31943;51.410;7.564;2023-11-19T02:32:28;2.80;;;1.27;;
46222;SDS011;31943;51.410;7.564;2023-11-19T02:34:54;4.55;;;1.63;;
46222;SDS011;31943;51.410;7.564;2023-11-19T02:37:19;3.08;;;1.80;;
46222;SDS011;31943;51.410;7.564;2023-11-19T02:39:45;3.67;;;1.60;;
46222;SDS011;31943;51.410;7.564;2023-11-19T02:42:10;7.60;;;2.10;;
46222;SDS011;31943;51.410;7.564;2023-11-19T02:44:37;3.13;;;2.08;;
46222;SDS011;31943;51.410;7.564;2023-11-19T02:47:04;7.68;;;1.85;;
46222;SDS011;31943;51.410;7.564;2023-11-19T02:49:30;4.78;;;1.70;;
46222;SDS011;31943;51.410;7.564;2023-11-19T02:51:56;6.40;;;1.85;;
46222;SDS011;31943;51.410;7.564;2023-11-19T02:54:22;5.53;;;1.70;;
46222;SDS011;31943;51.410;7.564;2023-11-19T02:56:47;4.35;;;1.60;;
46222;SDS011;31943;51.410;7.564;2023-11-19T02:59:13;4.90;;;1.60;;
46222;SDS011;31943;51.410;7.564;2023-11-19T03:01:40;8.93;;;1.77;;
46222;SDS011;31943;51.410;7.564;2023-11-19T03:04:05;4.15;;;1.50;;
46222;SDS011;31943;51.410;7.564;2023-11-19T03:06:31;5.35;;;1.67;;
46222;SDS011;31943;51.410;7.564;2023-11-19T03:08:56;6.70;;;1.80;;
46222;SDS011;31943;51.410;7.564;2023-11-19T03:11:22;3.58;;;1.42;;
46222;SDS011;31943;51.410;7.564;2023-11-19T03:13:47;6.53;;;1.92;;
46222;SDS011;31943;51.410;7.564;2023-11-19T03:16:13;7.95;;;1.85;;
46222;SDS011;31943;51.410;7.564;2023-11-19T03:18:40;5.72;;;1.75;;
46222;SDS011;31943;51.410;7.564;2023-11-19T03:21:06;7.57;;;1.85;;
46222;SDS011;31943;51.410;7.564;2023-11-19T03:23:31;7.80;;;2.08;;
46222;SDS011;31943;51.410;7.564;2023-11-19T03:25:57;8.93;;;1.85;;
46222;SDS011;31943;51.410;7.564;2023-11-19T03:28:22;7.13;;;2.30;;
46222;SDS011;31943;51.410;7.564;2023-11-19T03:30:48;8.30;;;2.10;;
46222;SDS011;31943;51.410;7.564;2023-11-19T03:33:13;7.65;;;1.95;;
46222;SDS011;31943;51.410;7.564;2023-11-19T03:35:40;11.40;;;2.40;;
46222;SDS011;31943;51.410;7.564;2023-11-19T03:38:06;10.27;;;2.35;;
46222;SDS011;31943;51.410;7.564;2023-11-19T03:40:31;7.90;;;2.05;;
46222;SDS011;31943;51.410;7.564;2023-11-19T03:42:57;14.30;;;3.10;;
46222;SDS011;31943;51.410;7.564;2023-11-19T03:45:22;9.68;;;2.33;;
46222;SDS011;31943;51.410;7.564;2023-11-19T03:47:48;8.30;;;2.40;;
46222;SDS011;31943;51.410;7.564;2023-11-19T03:50:13;12.25;;;2.17;;
46222;SDS011;31943;51.410;7.564;2023-11-19T03:52:40;8.90;;;2.88;;
46222;SDS011;31943;51.410;7.564;2023-11-19T03:55:06;10.77;;;2.35;;
46222;SDS011;31943;51.410;7.564;2023-11-19T03:57:32;13.85;;;2.83;;
46222;SDS011;31943;51.410;7.564;2023-11-19T03:59:58;8.95;;;2.08;;
46222;SDS011;31943;51.410;7.564;2023-11-19T04:02:23;12.02;;;2.78;;
46222;SDS011;31943;51.410;7.564;2023-11-19T04:04:49;10.20;;;2.42;;
46222;SDS011;31943;51.410;7.564;2023-11-19T04:07:14;10.80;;;2.55;;
46222;SDS011;31943;51.410;7.564;2023-11-19T04:09:41;16.60;;;2.55;;
46222;SDS011;31943;51.410;7.564;2023-11-19T04:12:07;12.55;;;2.72;;
46222;SDS011;31943;51.410;7.564;2023-11-19T04:14:33;7.55;;;2.92;;
46222;SDS011;31943;51.410;7.564;2023-11-19T04:16:59;15.45;;;2.78;;
46222;SDS011;31943;51.410;7.564;2023-11-19T04:19:24;12.63;;;2.90;;
46222;SDS011;31943;51.410;7.564;2023-11-19T04:21:50;11.95;;;2.70;;
46222;SDS011;31943;51.410;7.564;2023-11-19T04:24:15;12.32;;;2.58;;
46222;SDS011;31943;51.410;7.564;2023-11-19T04:26:42;16.73;;;2.88;;
46222;SDS011;31943;51.410;7.564;2023-11-19T04:29:09;14.95;;;2.80;;
46222;SDS011;31943;51.410;7.564;2023-11-19T04:31:34;12.68;;;2.30;;
46222;SDS011;31943;51.410;7.564;2023-11-19T04:34:00;10.20;;;2.22;;
46222;SDS011;31943;51.410;7.564;2023-11-19T04:36:25;11.60;;;2.70;;
46222;SDS011;31943;51.410;7.564;2023-11-19T04:38:51;12.85;;;2.58;;
46222;SDS011;31943;51.410;7.564;2023-11-19T04:41:16;13.20;;;2.33;;
46222;SDS011;31943;51.410;7.564;2023-11-19T04:43:43;10.18;;;2.10;;
46222;SDS011;31943;51.410;7.564;2023-11-19T04:46:10;12.30;;;3.08;;
46222;SDS011;31943;51.410;7.564;2023-11-19T04:48:35;11.30;;;2.58;;
46222;SDS011;31943;51.410;7.564;2023-11-19T04:51:01;15.57;;;3.13;;
46222;SDS011;31943;51.410;7.564;2023-11-19T04:53:30;11.15;;;2.78;;
46222;SDS011;31943;51.410;7.564;2023-11-19T04:55:55;15.63;;;3.63;;
46222;SDS011;31943;51.410;7.564;2023-11-19T04:58:21;14.73;;;2.95;;
46222;SDS011;31943;51.410;7.564;2023-11-19T05:00:49;14.98;;;3.80;;
46222;SDS011;31943;51.410;7.564;2023-11-19T05:03:14;18.20;;;4.15;;
46222;SDS011;31943;51.410;7.564;2023-11-19T05:05:40;14.63;;;3.65;;
46222;SDS011;31943;51.410;7.564;2023-11-19T05:08:05;16.00;;;3.67;;
46222;SDS011;31943;51.410;7.564;2023-11-19T05:10:31;16.10;;;3.17;;
46222;SDS011;31943;51.410;7.564;2023-11-19T05:12:56;17.33;;;3.65;;
46222;SDS011;31943;51.410;7.564;2023-11-19T05:15:22;13.10;;;3.00;;
46222;SDS011;31943;51.410;7.564;2023-11-19T05:17:49;17.67;;;3.53;;
46222;SDS011;31943;51.410;7.564;2023-11-19T05:20:14;16.90;;;3.47;;
46222;SDS011;31943;51.410;7.564;2023-11-19T05:22:40;19.50;;;3.53;;
46222;SDS011;31943;51.410;7.564;2023-11-19T05:25:06;15.45;;;3.33;;
46222;SDS011;31943;51.410;7.564;2023-11-19T05:27:32;11.45;;;2.85;;
46222;SDS011;31943;51.410;7.564;2023-11-19T05:29:58;14.35;;;3.30;;
46222;SDS011;31943;51.410;7.564;2023-11-19T05:32:23;16.38;;;3.80;;
46222;SDS011;31943;51.410;7.564;2023-11-19T05:34:50;21.27;;;4.30;;
46222;SDS011;31943;51.410;7.564;2023-11-19T05:37:16;19.45;;;3.60;;
46222;SDS011;31943;51.410;7.564;2023-11-19T05:39:42;17.55;;;3.55;;
46222;SDS011;31943;51.410;7.564;2023-11-19T05:42:07;15.38;;;2.92;;
46222;SDS011;31943;51.410;7.564;2023-11-19T05:44:33;15.70;;;2.97;;
46222;SDS011;31943;51.410;7.564;2023-11-19T05:46:58;21.35;;;3.97;;
46222;SDS011;31943;51.410;7.564;2023-11-19T05:49:24;15.68;;;3.78;;
46222;SDS011;31943;51.410;7.564;2023-11-19T05:51:51;19.67;;;3.97;;
46222;SDS011;31943;51.410;7.564;2023-11-19T05:54:17;18.13;;;4.25;;
46222;SDS011;31943;51.410;7.564;2023-11-19T05:56:47;18.10;;;3.38;;
46222;SDS011;31943;51.410;7.564;2023-11-19T05:59:12;21.48;;;3.95;;
46222;SDS011;31943;51.410;7.564;2023-11-19T06:01:38;19.02;;;4.32;;
46222;SDS011;31943;51.410;7.564;2023-11-19T06:04:04;16.63;;;3.65;;
46222;SDS011;31943;51.410;7.564;2023-11-19T06:06:29;17.40;;;3.85;;
46222;SDS011;31943;51.410;7.564;2023-11-19T06:08:56;13.88;;;3.67;;
46222;SDS011;31943;51.410;7.564;2023-11-19T06:11:22;15.60;;;3.38;;
46222;SDS011;31943;51.410;7.564;2023-11-19T06:13:47;21.35;;;4.68;;
46222;SDS011;31943;51.410;7.564;2023-11-19T06:16:13;19.63;;;3.13;;
46222;SDS011;31943;51.410;7.564;2023-11-19T06:18:39;20.00;;;4.10;;
46222;SDS011;31943;51.410;7.564;2023-11-19T06:21:05;19.95;;;4.20;;
46222;SDS011;31943;51.410;7.564;2023-11-19T06:23:31;18.83;;;3.20;;
46222;SDS011;31943;51.410;7.564;2023-11-19T06:25:58;18.48;;;4.28;;
46222;SDS011;31943;51.410;7.564;2023-11-19T06:28:23;14.98;;;3.70;;
46222;SDS011;31943;51.410;7.564;2023-11-19T06:30:50;19.50;;;3.38;;
46222;SDS011;31943;51.410;7.564;2023-11-19T06:33:15;15.82;;;3.83;;
46222;SDS011;31943;51.410;7.564;2023-11-19T06:35:42;16.83;;;3.45;;
46222;SDS011;31943;51.410;7.564;2023-11-19T06:38:08;18.33;;;3.38;;
46222;SDS011;31943;51.410;7.564;2023-11-19T06:40:35;19.08;;;3.58;;
46222;SDS011;31943;51.410;7.564;2023-11-19T06:43:02;16.52;;;3.42;;
46222;SDS011;31943;51.410;7.564;2023-11-19T06:45:29;15.27;;;2.97;;
46222;SDS011;31943;51.410;7.564;2023-11-19T06:47:55;22.05;;;4.15;;
46222;SDS011;31943;51.410;7.564;2023-11-19T06:50:22;17.60;;;3.10;;
46222;SDS011;31943;51.410;7.564;2023-11-19T06:52:49;14.70;;;3.15;;
46222;SDS011;31943;51.410;7.564;2023-11-19T06:55:16;17.60;;;4.40;;
46222;SDS011;31943;51.410;7.564;2023-11-19T06:57:42;16.55;;;3.60;;
46222;SDS011;31943;51.410;7.564;2023-11-19T07:00:10;15.95;;;3.80;;
46222;SDS011;31943;51.410;7.564;2023-11-19T07:02:37;18.38;;;3.20;;
46222;SDS011;31943;51.410;7.564;2023-11-19T07:05:03;22.65;;;4.20;;
46222;SDS011;31943;51.410;7.564;2023-11-19T07:07:29;14.75;;;3.33;;
46222;SDS011;31943;51.410;7.564;2023-11-19T07:09:57;20.58;;;3.40;;
46222;SDS011;31943;51.410;7.564;2023-11-19T07:12:22;14.73;;;4.40;;
46222;SDS011;31943;51.410;7.564;2023-11-19T07:14:49;13.77;;;3.30;;
46222;SDS011;31943;51.410;7.564;2023-11-19T07:17:18;21.40;;;3.92;;
46222;SDS011;31943;51.410;7.564;2023-11-19T07:19:43;18.58;;;4.05;;
46222;SDS011;31943;51.410;7.564;2023-11-19T07:22:09;18.98;;;4.00;;
46222;SDS011;31943;51.410;7.564;2023-11-19T07:24:35;21.90;;;3.85;;
46222;SDS011;31943;51.410;7.564;2023-11-19T07:27:01;15.55;;;3.47;;
46222;SDS011;31943;51.410;7.564;2023-11-19T07:29:27;16.58;;;3.45;;
46222;SDS011;31943;51.410;7.564;2023-11-19T07:31:53;18.02;;;3.85;;
46222;SDS011;31943;51.410;7.564;2023-11-19T07:34:22;16.98;;;3.60;;
46222;SDS011;31943;51.410;7.564;2023-11-19T07:36:47;17.63;;;3.75;;
46222;SDS011;31943;51.410;7.564;2023-11-19T07:39:13;19.85;;;3.75;;
46222;SDS011;31943;51.410;7.564;2023-11-19T07:41:39;13.75;;;3.38;;
46222;SDS011;31943;51.410;7.564;2023-11-19T07:44:05;16.20;;;3.67;;
46222;SDS011;31943;51.410;7.564;2023-11-19T07:46:31;19.80;;;3.65;;
46222;SDS011;31943;51.410;7.564;2023-11-19T07:48:59;17.20;;;3.88;;
46222;SDS011;31943;51.410;7.564;2023-11-19T07:51:26;17.33;;;3.78;;
46222;SDS011;31943;51.410;7.564;2023-11-19T07:53:52;19.67;;;4.53;;
46222;SDS011;31943;51.410;7.564;2023-11-19T07:56:19;22.35;;;4.40;;
46222;SDS011;31943;51.410;7.564;2023-11-19T07:58:45;19.33;;;4.50;;
46222;SDS011;31943;51.410;7.564;2023-11-19T08:01:11;20.02;;;3.55;;
46222;SDS011;31943;51.410;7.564;2023-11-19T08:03:36;21.42;;;4.15;;
46222;SDS011;31943;51.410;7.564;2023-11-19T08:06:03;19.17;;;3.47;;
46222;SDS011;31943;51.410;7.564;2023-11-19T08:08:30;20.55;;;4.05;;
46222;SDS011;31943;51.410;7.564;2023-11-19T08:10:57;21.77;;;4.20;;
46222;SDS011;31943;51.410;7.564;2023-11-19T08:13:23;21.00;;;4.15;;
46222;SDS011;31943;51.410;7.564;2023-11-19T08:15:48;17.20;;;3.78;;
46222;SDS011;31943;51.410;7.564;2023-11-19T08:18:15;22.95;;;4.07;;
46222;SDS011;31943;51.410;7.564;2023-11-19T08:20:41;16.75;;;4.20;;
46222;SDS011;31943;51.410;7.564;2023-11-19T08:23:06;19.08;;;3.47;;
46222;SDS011;31943;51.410;7.564;2023-11-19T08:25:33;24.63;;;4.30;;
46222;SDS011;31943;51.410;7.564;2023-11-19T08:27:59;24.92;;;5.03;;
46222;SDS011;31943;51.410;7.564;2023-11-19T08:30:25;20.00;;;3.85;;
46222;SDS011;31943;51.410;7.564;2023-11-19T08:32:51;25.13;;;4.20;;
46222;SDS011;31943;51.410;7.564;2023-11-19T08:35:18;22.27;;;4.05;;
46222;SDS011;31943;51.410;7.564;2023-11-19T08:37:45;20.48;;;4.38;;
46222;SDS011;31943;51.410;7.564;2023-11-19T08:40:10;19.42;;;3.95;;
46222;SDS011;31943;51.410;7.564;2023-11-19T08:42:40;20.88;;;4.50;;
46222;SDS011;31943;51.410;7.564;2023-11-19T08:45:06;19.42;;;4.07;;
46222;SDS011;31943;51.410;7.564;2023-11-19T08:47:33;26.77;;;5.13;;
46222;SDS011;31943;51.410;7.564;2023-11-19T08:49:58;22.25;;;4.57;;
46222;SDS011;31943;51.410;7.564;2023-11-19T08:52:24;21.15;;;4.30;;
46222;SDS011;31943;51.410;7.564;2023-11-19T08:54:51;21.88;;;4.78;;
46222;SDS011;31943;51.410;7.564;2023-11-19T08:57:17;24.35;;;5.00;;
46222;SDS011;31943;51.410;7.564;2023-11-19T08:59:45;18.67;;;4.35;;
46222;SDS011;31943;51.410;7.564;2023-11-19T09:02:12;25.58;;;5.65;;
46222;SDS011;31943;51.410;7.564;2023-11-19T09:04:39;19.45;;;4.78;;
46222;SDS011;31943;51.410;7.564;2023-11-19T09:07:05;21.70;;;4.85;;
46222;SDS011;31943;51.410;7.564;2023-11-19T09:09:31;22.70;;;4.90;;
46222;SDS011;31943;51.410;7.564;2023-11-19T09:11:57;20.00;;;5.50;;
46222;SDS011;31943;51.410;7.564;2023-11-19T09:14:22;22.63;;;4.88;;
46222;SDS011;31943;51.410;7.564;2023-11-19T09:16:49;21.88;;;5.32;;
46222;SDS011;31943;51.410;7.564;2023-11-19T09:19:15;19.52;;;5.18;;
46222;SDS011;31943;51.410;7.564;2023-11-19T09:21:41;23.20;;;5.03;;
46222;SDS011;31943;51.410;7.564;2023-11-19T09:24:06;22.70;;;5.53;;
46222;SDS011;31943;51.410;7.564;2023-11-19T09:26:32;19.42;;;4.30;;
46222;SDS011;31943;51.410;7.564;2023-11-19T09:28:58;22.58;;;5.05;;
46222;SDS011;31943;51.410;7.564;2023-11-19T09:31:24;19.17;;;4.63;;
46222;SDS011;31943;51.410;7.564;2023-11-19T09:33:51;19.77;;;4.97;;
46222;SDS011;31943;51.410;7.564;2023-11-19T09:36:16;23.65;;;4.95;;
46222;SDS011;31943;51.410;7.564;2023-11-19T09:38:42;14.65;;;4.00;;
46222;SDS011;31943;51.410;7.564;2023-11-19T09:41:09;17.95;;;4.22;;
46222;SDS011;31943;51.410;7.564;2023-11-19T09:43:35;20.35;;;4.38;;
46222;SDS011;31943;51.410;7.564;2023-11-19T09:46:01;21.60;;;4.30;;
46222;SDS011;31943;51.410;7.564;2023-11-19T09:48:30;25.42;;;4.47;;
46222;SDS011;31943;51.410;7.564;2023-11-19T09:50:59;24.95;;;4.30;;
46222;SDS011;31943;51.410;7.564;2023-11-19T09:53:25;20.65;;;4.65;;
46222;SDS011;31943;51.410;7.564;2023-11-19T09:55:51;18.73;;;3.95;;
46222;SDS011;31943;51.410;7.564;2023-11-19T09:58:18;16.25;;;3.58;;
46222;SDS011;31943;51.410;7.564;2023-11-19T10:00:44;21.83;;;4.57;;
46222;SDS011;31943;51.410;7.564;2023-11-19T10:03:10;16.48;;;4.80;;
46222;SDS011;31943;51.410;7.564;2023-11-19T10:05:36;20.35;;;4.72;;
46222;SDS011;31943;51.410;7.564;2023-11-19T10:08:04;22.33;;;4.57;;
46222;SDS011;31943;51.410;7.564;2023-11-19T10:10:30;22.20;;;4.30;;
46222;SDS011;31943;51.410;7.564;2023-11-19T10:12:58;18.08;;;3.95;;
46222;SDS011;31943;51.410;7.564;2023-11-19T10:15:24;25.02;;;4.72;;
46222;SDS011;31943;51.410;7.564;2023-11-19T10:17:50;25.38;;;5.00;;
46222;SDS011;31943;51.410;7.564;2023-11-19T10:20:17;27.15;;;4.97;;
46222;SDS011;31943;51.410;7.564;2023-11-19T10:22:42;23.75;;;4.95;;
46222;SDS011;31943;51.410;7.564;2023-11-19T10:25:20;22.25;;;4.85;;
46222;SDS011;31943;51.410;7.564;2023-11-19T10:27:47;27.15;;;4.15;;
46222;SDS011;31943;51.410;7.564;2023-11-19T10:30:14;18.67;;;4.50;;
46222;SDS011;31943;51.410;7.564;2023-11-19T10:32:43;20.02;;;4.70;;
46222;SDS011;31943;51.410;7.564;2023-11-19T10:35:08;20.85;;;3.80;;
46222;SDS011;31943;51.410;7.564;2023-11-19T10:37:35;22.98;;;4.28;;
46222;SDS011;31943;51.410;7.564;2023-11-19T10:40:00;18.33;;;4.03;;
46222;SDS011;31943;51.410;7.564;2023-11-19T10:42:28;22.40;;;4.35;;
46222;SDS011;31943;51.410;7.564;2023-11-19T10:44:54;21.05;;;4.57;;
46222;SDS011;31943;51.410;7.564;2023-11-19T10:47:22;22.23;;;5.00;;
46222;SDS011;31943;51.410;7.564;2023-11-19T10:49:48;13.93;;;4.32;;
46222;SDS011;31943;51.410;7.564;2023-11-19T10:52:15;22.48;;;5.18;;
46222;SDS011;31943;51.410;7.564;2023-11-19T10:54:43;19.50;;;4.72;;
46222;SDS011;31943;51.410;7.564;2023-11-19T10:57:12;21.20;;;4.32;;
46222;SDS011;31943;51.410;7.564;2023-11-19T10:59:47;20.50;;;4.50;;
46222;SDS011;31943;51.410;7.564;2023-11-19T11:02:14;21.80;;;4.55;;
46222;SDS011;31943;51.410;7.564;2023-11-19T11:04:46;21.23;;;4.13;;
46222;SDS011;31943;51.410;7.564;2023-11-19T11:07:15;19.73;;;4.10;;
46222;SDS011;31943;51.410;7.564;2023-11-19T11:09:43;20.33;;;4.30;;
46222;SDS011;31943;51.410;7.564;2023-11-19T11:12:09;23.50;;;4.95;;
46222;SDS011;31943;51.410;7.564;2023-11-19T11:14:37;17.05;;;3.92;;
46222;SDS011;31943;51.410;7.564;2023-11-19T11:17:04;22.02;;;4.00;;
46222;SDS011;31943;51.410;7.564;2023-11-19T11:19:33;21.77;;;3.97;;
46222;SDS011;31943;51.410;7.564;2023-11-19T11:21:59;19.95;;;4.10;;
46222;SDS011;31943;51.410;7.564;2023-11-19T11:24:32;22.48;;;3.92;;
46222;SDS011;31943;51.410;7.564;2023-11-19T11:30:17;18.90;;;3.70;;
46222;SDS011;31943;51.410;7.564;2023-11-19T11:32:58;17.70;;;4.25;;
46222;SDS011;31943;51.410;7.564;2023-11-19T11:35:37;20.02;;;4.30;;
46222;SDS011;31943;51.410;7.564;2023-11-19T11:38:21;16.70;;;3.80;;
46222;SDS011;31943;51.410;7.564;2023-11-19T11:43:49;16.77;;;3.67;;
46222;SDS011;31943;51.410;7.564;2023-11-19T11:49:28;18.88;;;4.28;;
46222;SDS011;31943;51.410;7.564;2023-11-19T11:52:01;19.27;;;3.83;;
46222;SDS011;31943;51.410;7.564;2023-11-19T11:54:28;21.80;;;4.57;;
46222;SDS011;31943;51.410;7.564;2023-11-19T11:57:01;17.65;;;3.80;;
46222;SDS011;31943;51.410;7.564;2023-11-19T11:59:31;18.55;;;3.90;;
46222;SDS011;31943;51.410;7.564;2023-11-19T12:02:02;17.95;;;3.85;;
46222;SDS011;31943;51.410;7.564;2023-11-19T12:04:30;17.90;;;4.13;;
46222;SDS011;31943;51.410;7.564;2023-11-19T12:07:05;19.85;;;4.07;;
46222;SDS011;31943;51.410;7.564;2023-11-19T12:09:33;16.88;;;3.08;;
46222;SDS011;31943;51.410;7.564;2023-11-19T12:15:03;16.50;;;4.78;;
46222;SDS011;31943;51.410;7.564;2023-11-19T12:17:37;18.95;;;3.75;;
46222;SDS011;31943;51.410;7.564;2023-11-19T12:20:12;18.80;;;3.70;;
46222;SDS011;31943;51.410;7.564;2023-11-19T12:22:38;19.17;;;4.32;;
46222;SDS011;31943;51.410;7.564;2023-11-19T12:25:05;19.67;;;4.57;;
46222;SDS011;31943;51.410;7.564;2023-11-19T12:27:32;18.70;;;4.25;;
46222;SDS011;31943;51.410;7.564;2023-11-19T12:29:58;22.52;;;4.82;;
46222;SDS011;31943;51.410;7.564;2023-11-19T12:32:25;16.25;;;4.05;;
46222;SDS011;31943;51.410;7.564;2023-11-19T12:34:51;13.20;;;3.13;;
46222;SDS011;31943;51.410;7.564;2023-11-19T12:37:19;14.05;;;3.72;;
46222;SDS011;31943;51.410;7.564;2023-11-19T12:39:45;15.90;;;3.10;;
46222;SDS011;31943;51.410;7.564;2023-11-19T12:42:11;18.08;;;3.92;;
46222;SDS011;31943;51.410;7.564;2023-11-19T12:44:37;20.73;;;3.80;;
46222;SDS011;31943;51.410;7.564;2023-11-19T12:47:03;16.75;;;3.38;;
46222;SDS011;31943;51.410;7.564;2023-11-19T12:49:29;14.73;;;2.92;;
46222;SDS011;31943;51.410;7.564;2023-11-19T12:51:55;15.48;;;3.30;;
46222;SDS011;31943;51.410;7.564;2023-11-19T12:54:32;19.05;;;4.03;;
46222;SDS011;31943;51.410;7.564;2023-11-19T12:57:00;14.52;;;3.42;;
46222;SDS011;31943;51.410;7.564;2023-11-19T12:59:26;15.65;;;3.65;;
46222;SDS011;31943;51.410;7.564;2023-11-19T13:01:54;12.65;;;2.85;;
46222;SDS011;31943;51.410;7.564;2023-11-19T13:04:20;12.73;;;3.50;;
46222;SDS011;31943;51.410;7.564;2023-11-19T13:06:46;13.75;;;3.15;;
46222;SDS011;31943;51.410;7.564;2023-11-19T13:09:21;16.77;;;3.22;;
46222;SDS011;31943;51.410;7.564;2023-11-19T13:11:48;10.68;;;3.10;;
46222;SDS011;31943;51.410;7.564;2023-11-19T13:14:14;16.38;;;3.20;;
46222;SDS011;31943;51.410;7.564;2023-11-19T13:16:40;18.92;;;3.60;;
46222;SDS011;31943;51.410;7.564;2023-11-19T13:19:05;15.43;;;3.75;;
46222;SDS011;31943;51.410;7.564;2023-11-19T13:21:31;14.73;;;3.47;;
46222;SDS011;31943;51.410;7.564;2023-11-19T13:23:57;21.02;;;3.90;;
46222;SDS011;31943;51.410;7.564;2023-11-19T13:26:23;16.02;;;3.50;;
46222;SDS011;31943;51.410;7.564;2023-11-19T13:28:50;16.75;;;3.10;;
46222;SDS011;31943;51.410;7.564;2023-11-19T13:31:17;15.23;;;3.20;;
46222;SDS011;31943;51.410;7.564;2023-11-19T13:33:42;14.32;;;2.85;;
46222;SDS011;31943;51.410;7.564;2023-11-19T13:36:08;12.55;;;2.95;;
46222;SDS011;31943;51.410;7.564;2023-11-19T13:38:34;12.15;;;3.03;;
46222;SDS011;31943;51.410;7.564;2023-11-19T13:41:01;13.18;;;2.90;;
46222;SDS011;31943;51.410;7.564;2023-11-19T13:43:27;8.18;;;2.15;;
46222;SDS011;31943;51.410;7.564;2023-11-19T13:45:54;13.52;;;3.00;;
46222;SDS011;31943;51.410;7.564;2023-11-19T13:48:21;14.48;;;2.70;;
46222;SDS011;31943;51.410;7.564;2023-11-19T13:50:48;9.45;;;2.33;;
46222;SDS011;31943;51.410;7.564;2023-11-19T13:53:14;8.85;;;2.08;;
46222;SDS011;31943;51.410;7.564;2023-11-19T13:55:41;8.68;;;2.58;;
46222;SDS011;31943;51.410;7.564;2023-11-19T13:58:09;11.98;;;2.47;;
46222;SDS011;31943;51.410;7.564;2023-11-19T14:00:37;10.57;;;2.47;;
46222;SDS011;31943;51.410;7.564;2023-11-19T14:03:04;12.05;;;2.90;;
46222;SDS011;31943;51.410;7.564;2023-11-19T14:05:30;13.95;;;2.75;;
46222;SDS011;31943;51.410;7.564;2023-11-19T14:07:57;11.23;;;2.92;;
46222;SDS011;31943;51.410;7.564;2023-11-19T14:10:24;13.55;;;3.38;;
46222;SDS011;31943;51.410;7.564;2023-11-19T14:12:50;15.75;;;3.72;;
46222;SDS011;31943;51.410;7.564;2023-11-19T14:15:15;16.42;;;3.88;;
46222;SDS011;31943;51.410;7.564;2023-11-19T14:17:41;13.77;;;4.03;;
46222;SDS011;31943;51.410;7.564;2023-11-19T14:20:10;15.35;;;3.72;;
46222;SDS011;31943;51.410;7.564;2023-11-19T14:22:38;13.02;;;3.58;;
46222;SDS011;31943;51.410;7.564;2023-11-19T14:25:04;13.70;;;3.42;;
46222;SDS011;31943;51.410;7.564;2023-11-19T14:27:30;14.20;;;2.97;;
46222;SDS011;31943;51.410;7.564;2023-11-19T14:29:56;15.13;;;3.65;;
46222;SDS011;31943;51.410;7.564;2023-11-19T14:32:22;15.70;;;3.65;;
46222;SDS011;31943;51.410;7.564;2023-11-19T14:34:55;14.35;;;3.28;;
46222;SDS011;31943;51.410;7.564;2023-11-19T14:48:12;18.20;;;3.63;;
46222;SDS011;31943;51.410;7.564;2023-11-19T14:50:44;15.50;;;3.20;;
46222;SDS011;31943;51.410;7.564;2023-11-19T14:57:17;16.48;;;3.50;;
46222;SDS011;31943;51.410;7.564;2023-11-19T15:00:08;18.92;;;3.20;;
46222;SDS011;31943;51.410;7.564;2023-11-19T15:37:25;16.23;;;3.50;;